createdAt,value
2017-09-23T00:00:05.181Z,70.40
2017-09-23T00:02:32.731Z,71.20
2017-09-23T00:05:00.168Z,70.50
2017-09-23T00:07:27.617Z,70.90
2017-09-23T00:09:55.064Z,71.90
2017-09-23T00:12:22.503Z,71.30
2017-09-23T00:14:50.048Z,71.60
2017-09-23T00:17:18.259Z,71.70
2017-09-23T00:19:45.691Z,71.60
2017-09-23T00:22:13.193Z,71.60
2017-09-23T00:24:40.632Z,72.00
2017-09-23T00:27:08.084Z,72.20
2017-09-23T00:29:35.524Z,72.30
2017-09-23T00:32:02.960Z,72.00
2017-09-23T00:34:30.403Z,71.50
2017-09-23T00:36:57.847Z,71.00
2017-09-23T00:39:25.395Z,71.00
2017-09-23T00:41:52.827Z,70.80
2017-09-23T00:44:20.272Z,70.70
2017-09-23T00:46:47.711Z,70.90
2017-09-23T00:49:15.156Z,70.60
2017-09-23T00:51:42.605Z,70.50
2017-09-23T00:54:10.052Z,70.50
2017-09-23T00:56:37.591Z,70.50
2017-09-23T00:59:05.036Z,70.60
2017-09-23T01:01:32.467Z,71.90
2017-09-23T01:03:59.920Z,71.10
2017-09-23T01:06:27.363Z,71.10
2017-09-23T01:08:54.804Z,71.10
2017-09-23T01:11:22.247Z,71.10
2017-09-23T01:13:49.693Z,71.10
2017-09-23T01:16:17.123Z,71.20
2017-09-23T01:18:44.675Z,71.20
2017-09-23T01:21:12.107Z,71.60
2017-09-23T01:23:39.552Z,71.70
2017-09-23T01:26:06.988Z,71.80
2017-09-23T01:28:34.433Z,71.70
2017-09-23T01:31:01.875Z,71.90
2017-09-23T01:33:30.168Z,72.00
2017-09-23T01:35:57.606Z,72.70
2017-09-23T01:38:25.135Z,71.80
2017-09-23T01:40:52.587Z,71.50
2017-09-23T01:43:20.124Z,71.50
2017-09-23T01:45:47.575Z,71.50
2017-09-23T01:48:15.019Z,71.70
2017-09-23T01:50:42.456Z,71.90
2017-09-23T01:53:09.900Z,72.10
2017-09-23T01:55:37.336Z,71.90
2017-09-23T01:58:04.779Z,72.10
2017-09-23T02:00:32.224Z,71.70
2017-09-23T02:02:59.768Z,71.80
2017-09-23T02:05:27.211Z,71.70
2017-09-23T02:07:54.656Z,72.10
2017-09-23T02:10:22.093Z,72.00
2017-09-23T02:12:50.331Z,72.50
2017-09-23T02:15:17.759Z,72.50
2017-09-23T02:17:45.196Z,72.60
2017-09-23T02:20:12.651Z,72.60
2017-09-23T02:22:40.095Z,72.00
2017-09-23T02:25:07.542Z,72.00
2017-09-23T02:27:35.740Z,72.20
2017-09-23T02:30:03.189Z,72.20
2017-09-23T02:32:30.683Z,72.50
2017-09-23T02:34:58.260Z,72.60
2017-09-23T02:37:26.496Z,72.90
2017-09-23T02:39:55.448Z,72.70
2017-09-23T02:42:22.912Z,72.70
2017-09-23T02:44:50.356Z,72.60
2017-09-23T02:47:17.795Z,72.20
2017-09-23T02:49:45.356Z,71.40
2017-09-23T02:52:12.887Z,71.20
2017-09-23T02:54:40.432Z,70.50
2017-09-23T02:57:07.975Z,70.60
2017-09-23T02:59:35.516Z,70.40
2017-09-23T03:02:02.949Z,70.00
2017-09-23T03:04:30.406Z,69.80
2017-09-23T03:06:57.843Z,69.50
2017-09-23T03:09:25.292Z,69.30
2017-09-23T03:11:52.831Z,69.70
2017-09-23T03:14:20.336Z,69.80
2017-09-23T03:16:47.772Z,69.80
2017-09-23T03:19:15.253Z,69.90
2017-09-23T03:21:42.668Z,70.00
2017-09-23T03:24:10.209Z,70.10
2017-09-23T03:26:37.644Z,70.30
2017-09-23T03:29:05.084Z,70.50
2017-09-23T03:31:32.540Z,69.90
2017-09-23T03:33:59.979Z,69.80
2017-09-23T03:36:27.412Z,69.50
2017-09-23T03:38:54.867Z,69.20
2017-09-23T03:41:22.308Z,69.90
2017-09-23T03:43:49.751Z,69.90
2017-09-23T03:46:17.191Z,69.80
2017-09-23T03:48:44.737Z,69.80
2017-09-23T03:51:12.180Z,69.40
2017-09-23T03:53:39.628Z,69.90
2017-09-23T03:56:07.171Z,69.70
2017-09-23T03:58:34.716Z,69.70
2017-09-23T04:01:02.148Z,69.80
2017-09-23T04:03:29.588Z,69.80
2017-09-23T04:05:57.027Z,70.20
2017-09-23T04:08:24.472Z,70.60
2017-09-23T04:10:51.929Z,70.90
2017-09-23T04:13:19.383Z,71.10
2017-09-23T04:15:46.824Z,71.50
2017-09-23T04:18:14.259Z,71.40
2017-09-23T04:20:41.812Z,71.70
2017-09-23T04:23:09.356Z,72.10
2017-09-23T04:25:36.799Z,72.20
2017-09-23T04:28:04.235Z,72.10
2017-09-23T04:30:31.791Z,72.30
2017-09-23T04:32:59.232Z,71.90
2017-09-23T04:35:26.781Z,71.70
2017-09-23T04:37:54.342Z,71.90
2017-09-23T04:40:21.843Z,72.10
2017-09-23T04:42:49.307Z,71.70
2017-09-23T04:45:16.851Z,71.60
2017-09-23T04:47:44.283Z,72.00
2017-09-23T04:50:11.726Z,71.90
2017-09-23T04:52:39.157Z,72.20
2017-09-23T04:55:06.624Z,71.60
2017-09-23T04:57:34.063Z,71.60
2017-09-23T05:00:01.504Z,71.70
2017-09-23T05:02:28.939Z,71.80
2017-09-23T05:04:56.383Z,71.70
2017-09-23T05:07:23.836Z,71.80
2017-09-23T05:09:51.279Z,71.80
2017-09-23T05:12:18.716Z,72.00
2017-09-23T05:14:46.160Z,72.20
2017-09-23T05:17:13.599Z,72.10
2017-09-23T05:19:41.055Z,71.80
2017-09-23T05:22:08.487Z,71.80
2017-09-23T05:24:36.032Z,71.50
2017-09-23T05:27:03.471Z,71.40
2017-09-23T05:29:31.020Z,71.70
2017-09-23T05:31:58.463Z,71.80
2017-09-23T05:34:26.008Z,71.70
2017-09-23T05:36:53.451Z,71.90
2017-09-23T05:39:20.899Z,71.80
2017-09-23T05:41:48.335Z,71.50
2017-09-23T05:44:15.779Z,71.40
2017-09-23T05:46:43.319Z,70.70
2017-09-23T05:49:10.868Z,70.70
2017-09-23T05:51:38.309Z,70.70
2017-09-23T05:54:05.852Z,70.70
2017-09-23T05:56:33.300Z,70.70
2017-09-23T05:59:00.843Z,70.70
2017-09-23T06:01:28.388Z,70.20
2017-09-23T06:03:55.832Z,69.70
2017-09-23T06:06:23.272Z,69.60
2017-09-23T06:08:52.247Z,69.60
2017-09-23T06:11:19.691Z,69.60
2017-09-23T06:13:47.136Z,69.10
2017-09-23T06:16:14.683Z,69.30
2017-09-23T06:18:42.125Z,69.10
2017-09-23T06:21:09.568Z,69.70
2017-09-23T06:23:37.113Z,69.00
2017-09-23T06:26:04.555Z,68.90
2017-09-23T06:28:32.006Z,68.40
2017-09-23T06:30:59.447Z,68.30
2017-09-23T06:33:26.886Z,68.10
2017-09-23T06:35:54.332Z,67.70
2017-09-23T06:38:21.879Z,67.60
2017-09-23T06:40:49.319Z,67.60
2017-09-23T06:43:16.759Z,67.10
2017-09-23T06:45:44.204Z,66.50
2017-09-23T06:48:11.657Z,65.40
2017-09-23T06:50:39.189Z,65.00
2017-09-23T06:53:06.619Z,65.40
2017-09-23T06:55:34.064Z,64.50
2017-09-23T06:58:01.506Z,64.50
2017-09-23T07:00:28.962Z,64.50
2017-09-23T07:02:56.388Z,64.60
2017-09-23T07:05:23.828Z,64.70
2017-09-23T07:07:51.263Z,64.50
2017-09-23T07:10:18.708Z,64.80
2017-09-23T07:12:46.144Z,64.70
2017-09-23T07:15:13.592Z,64.30
2017-09-23T07:17:41.028Z,64.30
2017-09-23T07:20:08.496Z,64.60
2017-09-23T07:22:36.696Z,64.60
2017-09-23T07:25:04.908Z,64.30
2017-09-23T07:27:32.343Z,64.30
2017-09-23T07:29:59.786Z,64.80
2017-09-23T07:32:27.243Z,64.50
2017-09-23T07:34:54.895Z,63.30
2017-09-23T07:37:22.336Z,62.90
2017-09-23T07:39:49.780Z,62.90
2017-09-23T07:42:17.220Z,62.90
2017-09-23T07:44:44.667Z,62.80
2017-09-23T07:47:12.203Z,62.80
2017-09-23T07:49:41.157Z,62.30
2017-09-23T07:52:08.590Z,62.30
2017-09-23T07:54:36.072Z,62.20
2017-09-23T07:57:03.511Z,62.50
2017-09-23T07:59:30.948Z,62.60
2017-09-23T08:01:58.395Z,62.20
2017-09-23T08:04:25.844Z,61.60
2017-09-23T08:06:54.059Z,61.40
2017-09-23T08:09:21.547Z,61.40
2017-09-23T08:11:49.004Z,61.70
2017-09-23T08:14:16.455Z,61.50
2017-09-23T08:16:44.664Z,62.50
2017-09-23T08:19:12.100Z,62.50
2017-09-23T08:21:39.544Z,62.50
2017-09-23T08:24:07.040Z,61.70
2017-09-23T08:26:34.484Z,61.10
2017-09-23T08:29:02.688Z,60.20
2017-09-23T08:31:30.136Z,60.20
2017-09-23T08:33:57.580Z,59.90
2017-09-23T08:36:25.052Z,59.70
2017-09-23T08:38:52.492Z,58.70
2017-09-23T08:41:20.036Z,58.40
2017-09-23T08:43:47.494Z,57.70
2017-09-23T08:46:15.064Z,56.90
2017-09-23T08:48:42.500Z,56.80
2017-09-23T08:51:10.808Z,55.90
2017-09-23T08:53:38.235Z,55.90
2017-09-23T08:56:05.712Z,54.90
2017-09-23T08:58:33.160Z,54.00
2017-09-23T09:01:00.608Z,54.00
2017-09-23T09:03:28.052Z,53.70
2017-09-23T09:05:55.644Z,53.70
2017-09-23T09:08:23.096Z,54.00
2017-09-23T09:10:50.555Z,53.10
2017-09-23T09:13:17.967Z,52.40
2017-09-23T09:15:45.562Z,51.90
2017-09-23T09:18:13.012Z,51.90
2017-09-23T09:23:14.416Z,51.60
2017-09-23T09:25:41.884Z,52.60
2017-09-23T09:28:09.343Z,53.90
2017-09-23T09:30:36.792Z,53.20
2017-09-23T09:33:04.224Z,53.10
2017-09-23T09:35:31.663Z,52.40
2017-09-23T09:37:59.105Z,51.50
2017-09-23T09:40:27.312Z,51.20
2017-09-23T09:42:54.743Z,51.30
2017-09-23T09:45:22.184Z,50.50
2017-09-23T09:47:50.416Z,49.90
2017-09-23T09:50:17.854Z,49.90
2017-09-23T09:52:45.284Z,50.20
2017-09-23T09:55:12.728Z,48.90
2017-09-23T09:57:40.179Z,49.20
2017-09-23T10:00:07.620Z,47.60
2017-09-23T10:02:35.056Z,47.70
2017-09-23T10:05:02.499Z,49.50
2017-09-23T10:07:29.939Z,48.40
2017-09-23T10:09:57.468Z,48.70
2017-09-23T10:12:36.926Z,48.00
2017-09-23T10:15:05.863Z,47.70
2017-09-23T10:17:33.308Z,47.70
2017-09-23T10:20:00.743Z,47.00
2017-09-23T10:22:28.219Z,46.60
2017-09-23T10:24:55.647Z,46.40
2017-09-23T10:27:23.156Z,47.90
2017-09-23T10:29:50.650Z,46.90
2017-09-23T10:32:19.605Z,46.80
2017-09-23T10:34:47.027Z,47.50
2017-09-23T10:37:14.468Z,47.00
2017-09-23T10:39:41.924Z,45.40
2017-09-23T10:42:09.380Z,46.70
2017-09-23T10:44:36.800Z,47.10
2017-09-23T10:47:04.280Z,46.50
2017-09-23T10:49:31.727Z,46.40
2017-09-23T10:51:59.168Z,46.10
2017-09-23T10:54:26.599Z,46.60
2017-09-23T10:56:54.048Z,47.40
2017-09-23T10:59:21.475Z,47.80
2017-09-23T11:01:48.917Z,48.00
2017-09-23T11:04:16.356Z,48.30
2017-09-23T11:06:43.797Z,47.70
2017-09-23T11:09:11.264Z,46.30
2017-09-23T11:11:38.704Z,48.40
2017-09-23T11:14:07.310Z,49.90
2017-09-23T11:16:35.520Z,48.00
2017-09-23T11:19:02.956Z,48.00
2017-09-23T11:21:30.404Z,48.90
2017-09-23T11:23:57.840Z,48.40
2017-09-23T11:26:25.312Z,49.00
2017-09-23T11:28:54.253Z,48.20
2017-09-23T11:31:21.695Z,48.10
2017-09-23T11:33:49.327Z,48.70
2017-09-23T11:36:16.755Z,47.30
2017-09-23T11:38:44.198Z,46.80
2017-09-23T11:41:11.699Z,47.80
2017-09-23T11:43:39.324Z,46.20
2017-09-23T11:46:06.756Z,46.80
2017-09-23T11:48:34.236Z,46.70
2017-09-23T11:51:01.667Z,45.30
2017-09-23T11:53:29.108Z,44.20
2017-09-23T11:55:56.540Z,45.30
2017-09-23T11:58:23.980Z,46.00
2017-09-23T12:00:51.415Z,45.20
2017-09-23T12:03:18.852Z,44.90
2017-09-23T12:05:46.283Z,45.20
2017-09-23T12:08:13.730Z,45.40
2017-09-23T12:10:41.155Z,45.90
2017-09-23T12:13:08.737Z,47.00
2017-09-23T12:15:36.205Z,45.30
2017-09-23T12:18:03.639Z,46.20
2017-09-23T12:20:31.169Z,46.50
2017-09-23T12:22:58.592Z,45.00
2017-09-23T12:25:26.048Z,45.20
2017-09-23T12:27:53.503Z,45.90
2017-09-23T12:30:20.916Z,45.70
2017-09-23T12:32:48.424Z,46.70
2017-09-23T12:35:15.922Z,47.90
2017-09-23T12:37:43.420Z,49.40
2017-09-23T12:40:11.623Z,49.70
2017-09-23T12:42:39.088Z,49.80
2017-09-23T12:45:06.636Z,48.80
2017-09-23T12:47:34.068Z,48.70
2017-09-23T12:50:01.520Z,48.70
2017-09-23T12:52:29.071Z,48.10
2017-09-23T12:54:56.584Z,48.10
2017-09-23T12:57:24.030Z,47.30
2017-09-23T12:59:51.503Z,46.90
2017-09-23T13:02:19.764Z,48.10
2017-09-23T13:04:47.299Z,48.10
2017-09-23T13:07:14.820Z,48.70
2017-09-23T13:09:42.281Z,49.10
2017-09-23T13:12:09.732Z,48.80
2017-09-23T13:14:37.189Z,48.80
2017-09-23T13:17:06.187Z,45.20
2017-09-23T13:19:34.416Z,44.90
2017-09-23T13:22:01.863Z,44.90
2017-09-23T13:24:29.301Z,45.00
2017-09-23T13:26:56.747Z,45.50
2017-09-23T13:29:24.192Z,46.40
2017-09-23T13:31:51.623Z,45.60
2017-09-23T13:34:19.077Z,46.80
2017-09-23T13:36:46.508Z,46.10
2017-09-23T13:39:13.935Z,45.40
2017-09-23T13:41:41.396Z,45.10
2017-09-23T13:44:08.836Z,44.00
2017-09-23T13:46:36.392Z,44.70
2017-09-23T13:49:03.824Z,43.50
2017-09-23T13:51:31.300Z,42.60
2017-09-23T13:53:58.820Z,41.90
2017-09-23T13:56:26.259Z,42.70
2017-09-23T13:58:53.782Z,42.50
2017-09-23T14:01:21.243Z,43.40
2017-09-23T14:03:48.695Z,43.30
2017-09-23T14:06:16.232Z,43.90
2017-09-23T14:08:43.754Z,44.00
2017-09-23T14:11:11.187Z,43.90
2017-09-23T14:13:38.660Z,43.60
2017-09-23T14:16:06.099Z,42.80
2017-09-23T14:18:33.553Z,43.30
2017-09-23T14:21:00.993Z,42.90
2017-09-23T14:23:28.438Z,43.00
2017-09-23T14:25:55.955Z,42.90
2017-09-23T14:28:23.375Z,42.40
2017-09-23T14:30:50.819Z,42.20
2017-09-23T14:33:18.258Z,42.40
2017-09-23T14:35:45.692Z,43.00
2017-09-23T14:38:13.136Z,43.40
2017-09-23T14:40:40.631Z,43.50
2017-09-23T14:43:08.176Z,43.90
2017-09-23T14:45:35.611Z,44.00
2017-09-23T14:48:03.064Z,43.70
2017-09-23T14:50:30.499Z,42.40
2017-09-23T14:52:58.051Z,42.70
2017-09-23T14:55:25.491Z,42.90
2017-09-23T14:57:52.969Z,42.60
2017-09-23T15:00:21.188Z,41.90
2017-09-23T15:02:48.660Z,41.90
2017-09-23T15:05:16.861Z,42.60
2017-09-23T15:07:44.304Z,42.50
2017-09-23T15:10:11.743Z,42.60
2017-09-23T15:12:39.236Z,42.70
2017-09-23T15:15:06.676Z,40.70
2017-09-23T15:17:34.911Z,41.80
2017-09-23T15:20:02.401Z,41.90
2017-09-23T15:22:29.899Z,41.90
2017-09-23T15:24:57.336Z,42.10
2017-09-23T15:27:24.783Z,42.70
2017-09-23T15:29:52.215Z,42.80
2017-09-23T15:32:19.748Z,42.10
2017-09-23T15:34:47.243Z,42.30
2017-09-23T15:37:14.668Z,42.60
2017-09-23T15:39:42.316Z,42.50
2017-09-23T15:42:09.759Z,42.80
2017-09-23T15:44:37.196Z,42.50
2017-09-23T15:47:04.633Z,42.20
2017-09-23T15:49:32.201Z,41.60
2017-09-23T15:51:59.632Z,41.80
2017-09-23T15:54:27.085Z,41.40
2017-09-23T15:56:54.528Z,41.90
2017-09-23T15:59:21.972Z,42.00
2017-09-23T16:01:50.921Z,41.70
2017-09-23T16:04:18.392Z,41.70
2017-09-23T16:06:45.828Z,42.10
2017-09-23T16:09:13.271Z,41.90
2017-09-23T16:11:41.220Z,42.10
2017-09-23T16:14:08.668Z,42.20
2017-09-23T16:16:36.192Z,42.50
2017-09-23T16:19:03.675Z,43.10
2017-09-23T16:21:31.919Z,43.80
2017-09-23T16:23:59.465Z,43.10
2017-09-23T16:26:26.900Z,43.30
2017-09-23T16:28:54.363Z,43.20
2017-09-23T16:31:23.528Z,43.30
2017-09-23T16:33:51.177Z,43.30
2017-09-23T16:36:18.608Z,43.70
2017-09-23T16:38:46.112Z,44.00
2017-09-23T16:41:13.639Z,44.20
2017-09-23T16:43:41.845Z,43.90
2017-09-23T16:46:09.318Z,43.80
2017-09-23T16:48:36.911Z,44.20
2017-09-23T16:51:04.364Z,44.20
2017-09-23T16:53:31.843Z,44.00
2017-09-23T16:55:59.288Z,43.80
2017-09-23T16:58:27.114Z,44.30
2017-09-23T17:00:54.597Z,44.20
2017-09-23T17:03:22.132Z,45.40
2017-09-23T17:05:49.580Z,45.40
2017-09-23T17:08:17.436Z,46.10
2017-09-23T17:10:44.904Z,46.30
2017-09-23T17:13:12.408Z,47.30
2017-09-23T17:15:39.844Z,47.00
2017-09-23T17:18:07.372Z,47.10
2017-09-23T17:20:34.817Z,47.70
2017-09-23T17:23:02.276Z,47.90
2017-09-23T17:25:29.728Z,48.60
2017-09-23T17:27:57.167Z,49.20
2017-09-23T17:30:24.608Z,49.50
2017-09-23T17:32:52.056Z,49.80
2017-09-23T17:35:19.501Z,50.00
2017-09-23T17:37:47.057Z,50.80
2017-09-23T17:40:14.594Z,51.00
2017-09-23T17:42:42.217Z,51.60
2017-09-23T17:45:10.080Z,52.10
2017-09-23T17:47:39.027Z,53.00
2017-09-23T17:50:06.504Z,53.00
2017-09-23T17:52:33.954Z,53.30
2017-09-23T17:55:02.972Z,54.30
2017-09-23T17:57:31.170Z,54.60
2017-09-23T17:59:58.863Z,54.60
2017-09-23T18:02:27.076Z,55.90
2017-09-23T18:04:54.515Z,55.90
2017-09-23T18:07:21.971Z,56.70
2017-09-23T18:09:49.423Z,57.10
2017-09-23T18:12:16.968Z,57.90
2017-09-23T18:14:44.507Z,58.40
2017-09-23T18:17:11.991Z,59.00
2017-09-23T18:19:39.413Z,59.30
2017-09-23T18:22:06.860Z,59.60
2017-09-23T18:24:35.105Z,60.20
2017-09-23T18:27:02.556Z,60.20
2017-09-23T18:29:30.103Z,60.60
2017-09-23T18:31:57.560Z,60.70
2017-09-23T18:34:24.999Z,61.20
2017-09-23T18:36:53.199Z,61.30
2017-09-23T18:39:20.653Z,61.40
2017-09-23T18:41:48.138Z,61.50
2017-09-23T18:44:16.380Z,61.50
2017-09-23T18:46:43.823Z,61.50
2017-09-23T18:49:11.296Z,61.80
2017-09-23T18:51:39.560Z,61.90
2017-09-23T18:54:07.768Z,62.30
2017-09-23T18:56:35.261Z,62.30
2017-09-23T18:59:02.790Z,63.30
2017-09-23T19:01:30.228Z,62.90
2017-09-23T19:03:57.764Z,62.30
2017-09-23T19:06:25.208Z,62.80
2017-09-23T19:08:52.748Z,63.30
2017-09-23T19:11:20.259Z,63.00
2017-09-23T19:13:47.699Z,62.80
2017-09-23T19:16:15.132Z,63.00
2017-09-23T19:18:42.576Z,63.30
2017-09-23T19:21:10.071Z,63.60
2017-09-23T19:23:37.552Z,64.10
2017-09-23T19:26:04.994Z,64.20
2017-09-23T19:28:32.432Z,64.20
2017-09-23T19:31:00.664Z,64.70
2017-09-23T19:33:28.096Z,64.80
2017-09-23T19:35:55.743Z,64.70
2017-09-23T19:38:24.025Z,64.70
2017-09-23T19:40:51.468Z,64.70
2017-09-23T19:43:19.107Z,64.00
2017-09-23T19:45:46.547Z,64.70
2017-09-23T19:48:14.008Z,64.60
2017-09-23T19:50:42.243Z,65.00
2017-09-23T19:53:09.738Z,64.80
2017-09-23T19:55:37.234Z,65.30
2017-09-23T19:58:04.671Z,65.50
2017-09-23T20:00:32.120Z,65.30
2017-09-23T20:02:59.560Z,65.40
2017-09-23T20:05:27.099Z,65.00
2017-09-23T20:07:54.543Z,65.20
2017-09-23T20:10:22.088Z,65.10
2017-09-23T20:12:49.613Z,65.00
2017-09-23T20:15:17.191Z,64.90
2017-09-23T20:17:44.628Z,64.70
2017-09-23T20:20:12.068Z,65.20
2017-09-23T20:22:39.505Z,65.60
2017-09-23T20:25:06.943Z,65.90
2017-09-23T20:27:34.399Z,66.10
2017-09-23T20:30:01.856Z,66.50
2017-09-23T20:32:29.288Z,67.10
2017-09-23T20:34:56.740Z,67.10
2017-09-23T20:37:24.961Z,66.80
2017-09-23T20:39:52.505Z,66.70
2017-09-23T20:42:19.937Z,66.80
2017-09-23T20:44:47.403Z,66.60
2017-09-23T20:47:14.957Z,66.40
2017-09-23T20:49:42.387Z,66.40
2017-09-23T20:52:09.834Z,66.60
2017-09-23T20:54:37.273Z,66.70
2017-09-23T20:57:04.741Z,67.10
2017-09-23T20:59:32.287Z,67.50
2017-09-23T21:01:59.870Z,67.70
2017-09-23T21:04:27.340Z,67.70
2017-09-23T21:06:54.800Z,67.90
2017-09-23T21:09:22.236Z,67.90
2017-09-23T21:11:49.679Z,67.90
2017-09-23T21:14:17.428Z,68.10
2017-09-23T21:16:44.868Z,68.30
2017-09-23T21:19:12.324Z,70.00
2017-09-23T21:21:39.771Z,68.70
2017-09-23T21:24:07.219Z,68.10
2017-09-23T21:26:35.431Z,67.70
2017-09-23T21:29:02.875Z,67.80
2017-09-23T21:31:30.494Z,68.10
2017-09-23T21:33:58.719Z,68.10
2017-09-23T21:36:26.178Z,68.00
2017-09-23T21:38:53.647Z,68.50
2017-09-23T21:41:21.158Z,68.50
2017-09-23T21:43:48.724Z,68.50
2017-09-23T21:46:16.932Z,68.50
2017-09-23T21:48:44.396Z,68.50
2017-09-23T21:51:11.842Z,68.00
2017-09-23T21:53:39.281Z,68.00
2017-09-23T21:56:06.721Z,68.00
2017-09-23T21:58:34.160Z,68.40
2017-09-23T22:01:01.599Z,68.40
2017-09-23T22:03:29.180Z,68.40
2017-09-23T22:05:57.432Z,68.30
2017-09-23T22:08:24.983Z,68.20
2017-09-23T22:10:54.123Z,68.90
2017-09-23T22:13:21.580Z,69.00
2017-09-23T22:15:49.015Z,69.40
2017-09-23T22:18:16.471Z,69.20
2017-09-23T22:20:44.033Z,69.20
2017-09-23T22:23:11.487Z,69.10
2017-09-23T22:25:39.724Z,69.40
2017-09-23T22:28:07.184Z,69.40
2017-09-23T22:30:34.627Z,69.30
2017-09-23T22:33:02.868Z,69.40
2017-09-23T22:35:30.321Z,69.40
2017-09-23T22:37:58.560Z,69.80
2017-09-23T22:40:26.007Z,69.80
2017-09-23T22:42:53.462Z,69.60
2017-09-23T22:45:21.685Z,69.80
2017-09-23T22:47:49.179Z,69.80
2017-09-23T22:50:16.636Z,70.10
2017-09-23T22:52:44.072Z,70.20
2017-09-23T22:55:11.567Z,70.40
2017-09-23T22:57:39.193Z,70.30
2017-09-23T23:00:06.621Z,70.40
2017-09-23T23:02:34.103Z,70.40
2017-09-23T23:05:01.588Z,70.50
2017-09-23T23:07:29.808Z,70.20
2017-09-23T23:09:57.255Z,70.80
2017-09-23T23:12:24.707Z,70.30
2017-09-23T23:14:52.146Z,70.30
2017-09-23T23:17:19.587Z,70.00
2017-09-23T23:19:47.119Z,69.50
2017-09-23T23:22:14.560Z,69.20
2017-09-23T23:24:41.996Z,69.30
2017-09-23T23:27:09.475Z,68.90
2017-09-23T23:29:37.704Z,69.00
2017-09-23T23:32:05.261Z,69.70
2017-09-23T23:34:33.467Z,69.00
2017-09-23T23:37:00.934Z,69.00
2017-09-23T23:39:28.476Z,68.70
2017-09-23T23:41:56.028Z,68.70
2017-09-23T23:44:23.468Z,68.90
2017-09-23T23:46:50.908Z,69.30
2017-09-23T23:49:18.456Z,69.10
2017-09-23T23:51:45.996Z,68.90
2017-09-23T23:54:13.523Z,68.80
2017-09-23T23:56:41.017Z,68.70
2017-09-23T23:59:09.227Z,68.70
